ADDS METAR Data INFO
IDs: Format: Raw Decoded Include TAF

Data at: 0207 UTC 21 Apr 2018

KEMM 210155Z AUTO 08012G19KT 10SM SCT070 SCT080 06/00 A3006 RMK AO2
KEMM 210135Z AUTO 06011G17KT 10SM SCT070 BKN080 08/00 A3004 RMK AO2
KEMM 210115Z AUTO 07015G25KT 10SM -RA SCT075 BKN080 09/00 A3002 RMK AO2
KEMM 210055Z AUTO 02009G27KT 10SM SCT065 SCT075 11/M05 A3001 RMK AO2
KEMM 210035Z AUTO 34019G30KT 310V010 10SM SCT060 SCT075 12/M06 A3001 RMK AO2
KEMM 210015Z AUTO 33016G22KT 10SM CLR 12/M05 A3001 RMK AO2
KEMM 202355Z AUTO 31015G24KT 10SM CLR 12/M05 A3000 RMK AO2
KEMM 202335Z AUTO 31018G25KT 10SM CLR 13/M04 A3000 RMK AO2
KEMM 202315Z AUTO 30017G24KT 10SM CLR 14/M03 A2999 RMK AO2
KEMM 202255Z AUTO 30011G21KT 10SM CLR 13/M03 A2999 RMK AO2
KEMM 202235Z AUTO 25015G21KT 10SM CLR 12/M01 A2999 RMK AO2
KEMM 202215Z AUTO 25015G21KT 10SM CLR 12/00 A2999 RMK AO2
KEMM 202155Z AUTO 28012G22KT 10SM CLR 12/M01 A2999 RMK AO2
KEMM 202135Z AUTO 27012G20KT 10SM CLR 11/00 A2999 RMK AO2
KEMM 202115Z AUTO 24013G20KT 10SM CLR 09/00 A3000 RMK AO2
KEMM 202055Z AUTO 25013G18KT 10SM CLR 09/00 A3000 RMK AO2
KEMM 202035Z AUTO 26009G17KT 10SM CLR 09/00 A3000 RMK AO2
KEMM 202015Z AUTO 26009G17KT 10SM CLR 10/00 A3000 RMK AO2
KEMM 201955Z AUTO 24008G14KT 10SM CLR 09/00 A3000 RMK AO2
KEMM 201935Z AUTO 22009KT 10SM CLR 08/00 A3001 RMK AO2
KEMM 201915Z AUTO 20005KT 10SM CLR 07/00 A3001 RMK AO2
KEMM 201855Z AUTO 22008KT 10SM SCT008 SCT016 SCT022 06/00 A3002 RMK AO2
KEMM 201835Z AUTO 20009KT 10SM BKN008 BKN016 04/00 A3002 RMK AO2
KEMM 201815Z AUTO 17011G15KT 10SM BKN006 03/00 A3002 RMK AO2
KEMM 201755Z AUTO 19012G16KT 10SM OVC004 03/00 A3001 RMK AO2
KEMM 201735Z AUTO 16009KT 10SM OVC004 02/00 A3001 RMK AO2
KEMM 201715Z AUTO 16011G16KT 10SM BKN004 BKN009 02/01 A3001 RMK AO2
KEMM 201655Z AUTO 14013G17KT 10SM BKN004 OVC042 02/00 A3001 RMK AO2
KEMM 201635Z AUTO 06011KT 10SM SCT042 07/00 A2999 RMK AO2
KEMM 201615Z AUTO 03010KT 10SM CLR 07/01 A2997 RMK AO2
KEMM 201555Z AUTO 02012KT 10SM CLR 06/02 A2997 RMK AO2
KEMM 201535Z AUTO 02012G19KT 10SM CLR 03/01 A2997 RMK AO2
KEMM 201515Z AUTO 03011G18KT 10SM CLR 03/01 A2997 RMK AO2
KEMM 201455Z AUTO 03012G20KT 10SM CLR 03/01 A2996 RMK AO2
KEMM 201435Z AUTO 02015G22KT 10SM CLR 03/01 A2997 RMK AO2
KEMM 201415Z AUTO 02011G19KT 10SM SCT060 02/01 A2996 RMK AO2
KEMM 201355Z AUTO 03013KT 10SM SCT060 02/01 A2995 RMK AO2
KEMM 201335Z AUTO 36011G22KT 10SM SCT010 01/00 A2994 RMK AO2
KEMM 201315Z AUTO 03015G23KT 10SM -DZ SCT012 SCT028 02/01 A2994 RMK AO2
KEMM 201255Z AUTO 04014G17KT 10SM -DZ SCT028 01/00 A2994 RMK AO2
KEMM 201235Z AUTO 05012G21KT 10SM -DZ SCT025 SCT034 SCT043 01/00 A2994 RMK AO2
KEMM 201215Z AUTO 04016G20KT 10SM SCT003 BKN026 OVC034 01/00 A2992 RMK AO2
KEMM 201155Z AUTO 03009G20KT 10SM -SN SCT005 BKN010 OVC015 01/00 A2993 RMK AO2
KEMM 201135Z AUTO 06013G19KT 7SM -RA BKN007 BKN017 01/00 A2993 RMK AO2
KEMM 201115Z AUTO 07016G25KT 10SM -RA SCT009 02/00 A2991 RMK AO2
KEMM 201055Z AUTO 07017G23KT 10SM -DZ CLR 02/00 A2991 RMK AO2
KEMM 201035Z AUTO 07017G24KT 10SM CLR 03/00 A2990 RMK AO2
KEMM 201015Z AUTO 07016G25KT 10SM CLR 04/M02 A2990 RMK AO2
KEMM 200955Z AUTO 08015G21KT 10SM SCT060 05/M05 A2990 RMK AO2
KEMM 200935Z AUTO 07015KT 10SM SCT060 05/M07 A2989 RMK AO2
KEMM 200915Z AUTO 07011KT 10SM SCT060 05/M08 A2989 RMK AO2
KEMM 200855Z AUTO 10008KT 10SM BKN070 06/M08 A2989 RMK AO2
KEMM 200835Z AUTO 04007KT 10SM SCT070 05/M07 A2989 RMK AO2
KEMM 200815Z AUTO 03003KT 10SM CLR 05/M07 A2989 RMK AO2
KEMM 200755Z AUTO 01007KT 10SM CLR 06/M07 A2989 RMK AO2
KEMM 200735Z AUTO 06009KT 10SM CLR 06/M08 A2989 RMK AO2
KEMM 200715Z AUTO 05009KT 10SM SCT075 SCT090 06/M07 A2989 RMK AO2
KEMM 200655Z AUTO 06008KT 10SM SCT085 06/M08 A2990 RMK AO2
KEMM 200635Z AUTO 00000KT 10SM CLR 06/M06 A2991 RMK AO2
KEMM 200615Z AUTO 01007KT 10SM CLR 06/M06 A2990 RMK AO2
KEMM 200555Z AUTO 04006KT 10SM CLR 07/M06 A2989 RMK AO2
KEMM 200535Z AUTO 02005KT 10SM CLR 07/M07 A2991 RMK AO2
KEMM 200515Z AUTO 01005KT 10SM CLR 07/M07 A2991 RMK AO2
KEMM 200455Z AUTO 11007KT 10SM CLR 08/M09 A2992 RMK AO2
KEMM 200435Z AUTO 12005KT 10SM CLR 08/M10 A2991 RMK AO2
KEMM 200415Z AUTO 13006KT 10SM SCT075 SCT090 08/M11 A2991 RMK AO2
KEMM 200355Z AUTO 15006KT 10SM CLR 08/M14 A2989 RMK AO2
KEMM 200335Z AUTO 13006KT 10SM CLR 08/M17 A2989 RMK AO2
KEMM 200315Z AUTO 00000KT 10SM CLR 09/M17 A2987 RMK AO2
KEMM 200255Z AUTO 00000KT 10SM CLR 09/M18 A2987 RMK AO2
KEMM 200235Z AUTO 00000KT 10SM CLR 10/M18 A2986 RMK AO2
KEMM 200215Z AUTO 15003KT 10SM CLR 10/M18 A2986 RMK AO2
KEMM 200155Z AUTO 15004KT 10SM CLR 11/M18 A2986 RMK AO2
KEMM 200135Z AUTO 15004KT 10SM CLR 11/M18 A2986 RMK AO2
KEMM 200115Z AUTO 14006KT 10SM CLR 12/M19 A2986 RMK AO2
KEMM 200055Z AUTO 15010G17KT 10SM CLR 12/M19 A2987 RMK AO2
KEMM 200035Z AUTO 19010KT 10SM CLR 12/M19 A2987 RMK AO2
KEMM 200015Z AUTO 14016G21KT 10SM CLR 12/M19 A2988 RMK AO2
KEMM 192350Z AUTO 14014G21KT 10SM CLR 12/M19 A2988 RMK AO2
KEMM 192335Z AUTO 14011G18KT 10SM CLR 13/M20 A2988 RMK AO2
KEMM 192315Z AUTO 14013G20KT 10SM CLR 13/M20 A2987 RMK AO2
KEMM 192255Z AUTO 18009G16KT 160V220 10SM CLR 13/M18 A2987 RMK AO2
KEMM 192235Z AUTO 15013G19KT 100V160 10SM CLR 14/M18 A2987 RMK AO2
KEMM 192215Z AUTO 16013G22KT 10SM CLR 14/M18 A2988 RMK AO2
KEMM 192155Z AUTO 08012G18KT 10SM CLR 13/M17 A2988 RMK AO2
KEMM 192135Z AUTO 08013G19KT 10SM CLR 13/M16 A2988 RMK AO2
KEMM 192115Z AUTO 09014G20KT 10SM CLR 13/M16 A2990 RMK AO2
KEMM 192055Z AUTO 10014G17KT 10SM CLR 13/M16 A2991 RMK AO2
KEMM 192035Z AUTO 11011G19KT 10SM CLR 12/M16 A2992 RMK AO2
KEMM 192015Z AUTO 09015G21KT 10SM CLR 12/M16 A2992 RMK AO2
KEMM 191955Z AUTO 07014G21KT 10SM CLR 12/M16 A2992 RMK AO2
KEMM 191935Z AUTO 08016G22KT 10SM CLR 12/M16 A2994 RMK AO2
KEMM 191915Z AUTO 09015G22KT 10SM CLR 11/M16 A2995 RMK AO2
KEMM 191855Z AUTO 06014G22KT 10SM CLR 11/M15 A2995 RMK AO2
KEMM 191835Z AUTO 07017G21KT 10SM CLR 10/M15 A2996 RMK AO2
KEMM 191815Z AUTO 06018G25KT 10SM CLR 09/M13 A2997 RMK AO2
KEMM 191755Z AUTO 06014G19KT 10SM CLR 09/M13 A2998 RMK AO2
KEMM 191735Z AUTO 04014G19KT 10SM CLR 08/M12 A3000 RMK AO2
KEMM 191715Z AUTO 04011G17KT 10SM CLR 07/M11 A3000 RMK AO2
KEMM 191655Z AUTO 05013G18KT 10SM CLR 06/M12 A3001 RMK AO2
KEMM 191635Z AUTO 02012KT 10SM CLR 06/M11 A3001 RMK AO2
KEMM 191615Z AUTO 02014G20KT 10SM CLR 05/M11 A3001 RMK AO2
KEMM 191555Z AUTO 02013G20KT 10SM CLR 05/M11 A3002 RMK AO2
KEMM 191535Z AUTO 02013G18KT 10SM CLR 03/M11 A3002 RMK AO2
KEMM 191515Z AUTO 01015G22KT 10SM CLR 03/M12 A3002 RMK AO2
KEMM 191455Z AUTO 01011G22KT 10SM CLR 02/M12 A3003 RMK AO2
KEMM 191435Z AUTO 03016G22KT 10SM CLR 02/M12 A3002 RMK AO2
KEMM 191415Z AUTO 04019G23KT 10SM CLR 02/M12 A3002 RMK AO2